createdAt,value
2017-05-16T00:00:02.446Z,1017.02
2017-05-16T00:10:02.803Z,1017.07
2017-05-16T00:20:02.368Z,1016.99
2017-05-16T00:30:02.845Z,1016.9
2017-05-16T00:40:03.137Z,1016.91
2017-05-16T00:50:02.737Z,1016.85
2017-05-16T01:00:03.148Z,1016.71
2017-05-16T01:10:02.511Z,1016.72
2017-05-16T01:20:02.869Z,1016.63
2017-05-16T01:30:03.365Z,1016.52
2017-05-16T01:40:02.834Z,1016.49
2017-05-16T01:50:02.766Z,1016.43
2017-05-16T02:00:03.216Z,1016.37
2017-05-16T02:10:02.922Z,1016.36
2017-05-16T02:20:03.003Z,1016.26
2017-05-16T02:30:02.446Z,1016.22
2017-05-16T02:40:02.929Z,1016.12
2017-05-16T02:50:03.400Z,1016.18
2017-05-16T03:00:02.901Z,1016.25
2017-05-16T03:10:02.451Z,1016
2017-05-16T03:20:02.527Z,1016.17
2017-05-16T03:30:02.997Z,1016.22
2017-05-16T03:40:02.422Z,1016.2
2017-05-16T03:50:03.147Z,1016.14
2017-05-16T04:00:02.611Z,1016.14
2017-05-16T04:10:02.627Z,1016.14
2017-05-16T04:20:02.867Z,1016.09
2017-05-16T04:30:03.237Z,1016.14
2017-05-16T04:40:02.850Z,1016.12
2017-05-16T04:50:03.223Z,1016.22
2017-05-16T05:00:02.426Z,1016.23
2017-05-16T05:10:03.023Z,1016.23
2017-05-16T05:20:02.607Z,1016.22
2017-05-16T05:30:02.956Z,1016.33
2017-05-16T05:40:02.447Z,1016.58
2017-05-16T05:50:03.177Z,1016.71
2017-05-16T06:00:03.171Z,1016.7
2017-05-16T06:10:02.829Z,1016.69
2017-05-16T06:20:03.299Z,1016.83
2017-05-16T06:30:02.987Z,1016.79
2017-05-16T06:40:02.409Z,1016.63
2017-05-16T06:50:03.264Z,1016.77
2017-05-16T07:00:03.246Z,1016.84
2017-05-16T07:10:03.342Z,1016.87
2017-05-16T07:20:02.592Z,1016.86
2017-05-16T07:30:03.057Z,1016.77
2017-05-16T07:40:02.430Z,1016.68
2017-05-16T07:50:02.509Z,1016.72
2017-05-16T08:00:02.534Z,1016.82
2017-05-16T08:10:02.624Z,1016.81
2017-05-16T08:20:02.926Z,1016.72
2017-05-16T08:30:03.250Z,1016.7
2017-05-16T08:40:03.292Z,1016.58
2017-05-16T08:50:02.700Z,1016.52
2017-05-16T09:00:02.696Z,1016.72
2017-05-16T09:10:02.741Z,1016.69
2017-05-16T09:20:03.140Z,1016.83
2017-05-16T09:30:02.491Z,1016.76
2017-05-16T09:40:02.891Z,1016.72
2017-05-16T09:50:03.020Z,1016.67
2017-05-16T10:00:03.050Z,1016.57
2017-05-16T10:10:02.493Z,1016.54
2017-05-16T10:20:03.111Z,1016.55
2017-05-16T10:30:02.550Z,1016.45
2017-05-16T10:40:03.015Z,1016.52
2017-05-16T10:50:02.439Z,1016.41
2017-05-16T11:00:02.766Z,1016.4
2017-05-16T11:10:02.790Z,1016.21
2017-05-16T11:20:03.209Z,1016.2
2017-05-16T11:30:02.565Z,1016.23
2017-05-16T11:40:02.637Z,1016.38
2017-05-16T11:50:02.895Z,1016.12
2017-05-16T12:00:02.742Z,1015.89
2017-05-16T12:10:03.273Z,1015.8
2017-05-16T12:20:02.797Z,1015.74
2017-05-16T12:30:03.323Z,1015.74
2017-05-16T12:40:02.751Z,1015.47
2017-05-16T12:50:02.908Z,1015.41
2017-05-16T13:00:03.293Z,1015.42
2017-05-16T13:10:03.334Z,1015.24
2017-05-16T13:20:02.886Z,1015.15
2017-05-16T13:30:03.223Z,1015.15
2017-05-16T13:40:03.287Z,1015.23
2017-05-16T13:50:03.110Z,1015.02
2017-05-16T14:00:03.122Z,1014.96
2017-05-16T14:10:03.220Z,1015.01
2017-05-16T14:20:02.433Z,1014.96
2017-05-16T14:30:03.192Z,1014.99
2017-05-16T14:40:03.492Z,1014.91
2017-05-16T14:50:03.037Z,1014.83
2017-05-16T15:00:03.047Z,1014.74
2017-05-16T15:10:03.090Z,1014.71
2017-05-16T15:20:02.657Z,1014.69
2017-05-16T15:30:02.969Z,1014.74
2017-05-16T15:40:02.984Z,1014.77
2017-05-16T15:50:03.198Z,1014.72
2017-05-16T16:00:03.363Z,1014.66
2017-05-16T16:10:02.463Z,1014.63
2017-05-16T16:20:02.347Z,1014.67
2017-05-16T16:30:03.118Z,1014.58
2017-05-16T16:40:02.531Z,1014.59
2017-05-16T16:50:02.994Z,1014.47
2017-05-16T17:00:03.259Z,1014.54
2017-05-16T17:10:03.390Z,1014.53
2017-05-16T17:20:02.735Z,1014.56
2017-05-16T17:30:02.488Z,1014.65
2017-05-16T17:40:02.567Z,1014.58
2017-05-16T17:50:02.663Z,1014.59
2017-05-16T18:00:02.726Z,1014.64
2017-05-16T18:10:03.310Z,1014.59
2017-05-16T18:20:03.138Z,1014.63
2017-05-16T18:30:02.630Z,1014.66
2017-05-16T18:40:03.118Z,1014.63
2017-05-16T18:50:02.828Z,1014.59
2017-05-16T19:00:03.387Z,1014.67
2017-05-16T19:10:03.551Z,1014.53
2017-05-16T19:20:02.710Z,1014.66
2017-05-16T19:30:03.251Z,1014.64
2017-05-16T19:40:02.720Z,1014.7
2017-05-16T19:50:02.472Z,1014.67
2017-05-16T20:00:02.926Z,1014.71
2017-05-16T20:10:02.708Z,1014.65
2017-05-16T20:20:02.378Z,1014.66
2017-05-16T20:30:02.820Z,1014.73
2017-05-16T20:40:03.350Z,1014.56
2017-05-16T20:50:03.207Z,1014.56
2017-05-16T21:00:02.625Z,1014.57
2017-05-16T21:10:02.427Z,1014.59
2017-05-16T21:20:02.967Z,1014.61
2017-05-16T21:30:02.418Z,1014.5
2017-05-16T21:40:02.876Z,1014.49
2017-05-16T21:50:02.872Z,1014.43
2017-05-16T22:00:02.431Z,1014.39
2017-05-16T22:10:03.211Z,1014.46
2017-05-16T22:20:02.919Z,1014.36
2017-05-16T22:30:02.383Z,1014.29
2017-05-16T22:40:03.051Z,1014.39
2017-05-16T22:50:03.252Z,1014.28
2017-05-16T23:00:02.668Z,1014.24
2017-05-16T23:10:02.774Z,1014.15
2017-05-16T23:20:02.578Z,1013.98
2017-05-16T23:30:03.046Z,1013.94
2017-05-16T23:40:02.615Z,1013.87
2017-05-16T23:50:03.083Z,1013.9
